Time;durP1;ratioP1;P1;durP2;ratioP2;P2;SDS_P1;SDS_P2;PMS_P1;PMS_P2;Temp;Humidity;BMP_temperature;BMP_pressure;BME280_temperature;BME280_humidity;BME280_pressure;Samples;Min_cycle;Max_cycle;Signal;HPM_P1;HPM_P2
2022/05/11 00:01:58;;;;;;;19.73;13.02;;;17.10;99.90;;;;;;5070505;28;20033;-45
2022/05/11 00:04:23;;;;;;;18.80;11.80;;;17.10;99.90;;;;;;5086740;28;20526;-46
2022/05/11 00:06:49;;;;;;;17.92;12.18;;;17.10;99.90;;;;;;5074717;28;20179;-45
2022/05/11 00:09:16;;;;;;;16.73;11.02;;;17.10;99.90;;;;;;5089293;28;20170;-45
2022/05/11 00:11:42;;;;;;;18.40;11.32;;;17.10;99.90;;;;;;5079409;28;20137;-45
2022/05/11 00:14:09;;;;;;;19.10;11.90;;;17.10;99.90;;;;;;5088520;28;20385;-46
2022/05/11 00:16:35;;;;;;;13.85;10.40;;;17.10;99.90;;;;;;5076536;28;20031;-47
2022/05/11 00:19:01;;;;;;;14.95;11.05;;;17.10;99.90;;;;;;5083221;28;20396;-45
2022/05/11 00:21:26;;;;;;;14.57;10.60;;;17.10;99.90;;;;;;5080685;28;20020;-37
2022/05/11 00:23:53;;;;;;;14.30;10.65;;;17.10;99.90;;;;;;5082587;28;20104;-37
2022/05/11 00:26:20;;;;;;;15.63;11.32;;;17.10;99.90;;;;;;5087894;28;20033;-46
2022/05/11 00:28:45;;;;;;;13.75;10.93;;;17.10;99.90;;;;;;5083142;28;20020;-45
2022/05/11 00:31:11;;;;;;;15.75;12.77;;;17.10;99.90;;;;;;5079680;28;20023;-48
2022/05/11 00:33:37;;;;;;;20.20;14.07;;;17.10;99.90;;;;;;5070419;28;20028;-45
2022/05/11 00:36:07;;;;;;;20.27;11.88;;;16.90;99.90;;;;;;5073108;28;20074;-44
2022/05/11 00:38:32;;;;;;;22.93;12.87;;;17.00;99.90;;;;;;5066541;28;20085;-44
2022/05/11 00:41:00;;;;;;;22.33;13.68;;;16.80;99.90;;;;;;5064928;28;20656;-47
2022/05/11 00:43:32;;;;;;;18.23;13.85;;;16.80;99.90;;;;;;5060116;28;20090;-44
2022/05/11 00:46:18;;;;;;;16.35;12.00;;;16.80;99.90;;;;;;5073853;28;20138;-48
2022/05/11 00:51:42;;;;;;;17.77;11.88;;;16.70;99.90;;;;;;5068951;28;20039;-45
2022/05/11 00:54:08;;;;;;;20.42;12.38;;;16.70;99.90;;;;;;5063212;28;20151;-45
2022/05/11 00:56:38;;;;;;;16.25;11.07;;;16.70;99.90;;;;;;5063515;28;20113;-45
2022/05/11 00:59:11;;;;;;;18.15;12.50;;;16.80;99.90;;;;;;5062804;28;20089;-45
2022/05/11 01:01:39;;;;;;;20.98;13.02;;;16.80;99.90;;;;;;5065207;28;20110;-45
2022/05/11 01:04:11;;;;;;;19.38;13.68;;;16.80;99.90;;;;;;5061028;28;20033;-44
2022/05/11 01:06:37;;;;;;;19.95;12.63;;;16.60;99.90;;;;;;5063255;28;20027;-45
2022/05/11 01:09:04;;;;;;;16.88;12.60;;;16.60;99.90;;;;;;5061608;28;20430;-45
2022/05/11 01:11:30;;;;;;;18.17;13.10;;;16.60;99.90;;;;;;5066442;28;20024;-44
2022/05/11 01:13:57;;;;;;;18.75;14.90;;;16.70;99.90;;;;;;5061421;28;20217;-47
2022/05/11 01:16:24;;;;;;;22.83;13.38;;;16.70;99.90;;;;;;5068014;28;20051;-44
2022/05/11 01:18:50;;;;;;;19.13;13.82;;;16.70;99.90;;;;;;5063483;28;20114;-45
2022/05/11 01:21:16;;;;;;;17.95;13.35;;;16.60;99.90;;;;;;5067223;28;20075;-45
2022/05/11 01:23:52;;;;;;;21.92;14.52;;;16.60;99.90;;;;;;5062584;28;20119;-46
2022/05/11 01:26:18;;;;;;;18.27;14.75;;;16.60;99.90;;;;;;5060270;28;20017;-45
2022/05/11 01:28:46;;;;;;;18.15;13.68;;;16.60;99.90;;;;;;5060831;28;20028;-46
2022/05/11 01:31:15;;;;;;;21.85;14.00;;;16.60;99.90;;;;;;5064974;28;20021;-45
2022/05/11 01:33:46;;;;;;;18.60;14.55;;;16.60;99.90;;;;;;5059949;28;20013;-44
2022/05/11 01:36:25;;;;;;;23.00;16.30;;;16.60;99.90;;;;;;5066308;28;20023;-45
2022/05/11 01:38:54;;;;;;;22.17;15.43;;;16.60;99.90;;;;;;5057777;28;20036;-44
2022/05/11 01:41:34;;;;;;;18.23;13.77;;;16.50;99.90;;;;;;5067014;28;20081;-45
2022/05/11 01:44:06;;;;;;;17.10;13.02;;;16.50;99.90;;;;;;5057981;28;20485;-44
2022/05/11 01:46:32;;;;;;;18.17;13.65;;;16.50;99.90;;;;;;5067161;28;20028;-44
2022/05/11 01:48:58;;;;;;;19.30;13.85;;;16.60;99.90;;;;;;5067152;28;20108;-45
2022/05/11 01:51:23;;;;;;;22.00;16.65;;;16.60;99.90;;;;;;5078075;28;20544;-44
2022/05/11 01:53:49;;;;;;;20.77;15.90;;;16.50;99.90;;;;;;5089537;28;20118;-45
2022/05/11 01:56:19;;;;;;;22.20;16.65;;;16.40;99.90;;;;;;5072844;28;20489;-45
2022/05/11 01:58:45;;;;;;;26.77;17.52;;;16.30;99.90;;;;;;5082765;28;20024;-44
2022/05/11 02:01:10;;;;;;;26.75;18.65;;;16.20;99.90;;;;;;5078540;28;20182;-45
2022/05/11 02:03:36;;;;;;;30.23;18.85;;;16.10;99.90;;;;;;5080692;28;20463;-45
2022/05/11 02:08:46;;;;;;;30.13;20.00;;;16.00;99.90;;;;;;5071257;28;20056;-45
2022/05/11 02:11:13;;;;;;;26.67;19.83;;;15.90;99.90;;;;;;5064749;28;20490;-46
2022/05/11 02:13:39;;;;;;;25.27;20.65;;;15.90;99.90;;;;;;5080278;28;20015;-45
2022/05/11 02:16:05;;;;;;;26.23;20.05;;;15.80;99.90;;;;;;5083088;28;20483;-44
2022/05/11 02:18:31;;;;;;;32.33;22.42;;;15.80;99.90;;;;;;5077102;28;20021;-44
2022/05/11 02:20:57;;;;;;;28.75;23.38;;;15.70;99.90;;;;;;5067366;28;20032;-44
2022/05/11 02:23:24;;;;;;;32.30;21.48;;;15.70;99.90;;;;;;5077099;28;20029;-45
2022/05/11 02:25:51;;;;;;;32.60;23.05;;;15.60;99.90;;;;;;5090058;28;20129;-45
2022/05/11 02:28:21;;;;;;;36.10;24.73;;;15.60;99.90;;;;;;5075935;28;20383;-46
2022/05/11 02:30:47;;;;;;;32.78;23.20;;;15.60;99.90;;;;;;5089270;28;20357;-45
2022/05/11 02:33:14;;;;;;;30.05;22.95;;;15.60;99.90;;;;;;5076171;28;20020;-45
2022/05/11 02:35:40;;;;;;;32.63;23.65;;;15.50;99.90;;;;;;5081524;28;20115;-46
2022/05/11 02:38:09;;;;;;;36.47;25.92;;;15.50;99.90;;;;;;5078088;28;20034;-45
2022/05/11 02:40:37;;;;;;;39.85;24.67;;;15.50;99.90;;;;;;5072379;28;20024;-45
2022/05/11 02:43:03;;;;;;;37.15;25.80;;;15.50;99.90;;;;;;5080049;28;20077;-47
2022/05/11 02:45:33;;;;;;;32.53;24.70;;;15.40;99.90;;;;;;5080287;28;20028;-47
2022/05/11 02:48:01;;;;;;;36.70;26.60;;;15.40;99.90;;;;;;5081012;28;20524;-45
2022/05/11 02:50:37;;;;;;;34.38;25.13;;;15.50;99.90;;;;;;5080400;28;20032;-46
2022/05/11 02:53:07;;;;;;;32.55;25.20;;;15.50;99.90;;;;;;5081058;28;20025;-44
2022/05/11 02:55:34;;;;;;;35.15;25.33;;;15.50;99.90;;;;;;5080288;28;20603;-44
2022/05/11 02:58:00;;;;;;;33.75;24.65;;;15.40;99.90;;;;;;5084974;28;20047;-46
2022/05/11 03:00:25;;;;;;;34.60;25.73;;;15.50;99.90;;;;;;5080345;28;20481;-44
2022/05/11 03:02:51;;;;;;;32.67;25.35;;;15.50;99.90;;;;;;5085036;28;20035;-44
2022/05/11 03:05:17;;;;;;;34.65;24.48;;;15.50;99.90;;;;;;5080586;28;20027;-45
2022/05/11 03:07:42;;;;;;;33.92;24.95;;;15.40;99.90;;;;;;5084260;28;20031;-45
2022/05/11 03:10:08;;;;;;;39.67;24.80;;;15.40;99.90;;;;;;5073284;28;20505;-47
2022/05/11 03:12:34;;;;;;;37.42;25.08;;;15.40;99.90;;;;;;5088016;28;20080;-46
2022/05/11 03:15:01;;;;;;;31.65;24.90;;;15.40;99.90;;;;;;5074723;28;20117;-44
2022/05/11 03:17:27;;;;;;;32.30;22.67;;;15.30;99.90;;;;;;5087417;28;20050;-44
2022/05/11 03:19:52;;;;;;;29.23;22.48;;;15.40;99.90;;;;;;5078554;28;20478;-44
2022/05/11 03:22:18;;;;;;;33.15;24.42;;;15.40;99.90;;;;;;5085620;28;20044;-44
2022/05/11 03:24:44;;;;;;;34.70;24.00;;;15.40;99.90;;;;;;5082454;28;20113;-44
2022/05/11 03:27:09;;;;;;;34.30;23.92;;;15.40;99.90;;;;;;5085449;28;20052;-44
2022/05/11 03:29:36;;;;;;;32.15;22.08;;;15.40;99.90;;;;;;5073155;28;20099;-44
2022/05/11 03:34:46;;;;;;;31.10;24.13;;;15.40;99.90;;;;;;5077101;28;20396;-43
2022/05/11 03:37:15;;;;;;;34.38;24.08;;;15.40;99.90;;;;;;5080027;28;20237;-44
2022/05/11 03:39:41;;;;;;;31.63;23.25;;;15.40;99.90;;;;;;5086166;28;20067;-44
2022/05/11 03:42:10;;;;;;;31.67;23.17;;;15.30;99.90;;;;;;5083415;28;20489;-44
2022/05/11 03:44:36;;;;;;;32.83;25.25;;;15.30;99.90;;;;;;5090136;28;20093;-44
2022/05/11 03:47:02;;;;;;;32.63;23.92;;;15.30;99.90;;;;;;5075960;28;20274;-44
2022/05/11 03:49:28;;;;;;;34.55;25.52;;;15.30;99.90;;;;;;5091266;28;20012;-44
2022/05/11 03:51:53;;;;;;;37.58;25.02;;;15.30;99.90;;;;;;5076346;28;20024;-44
2022/05/11 03:54:19;;;;;;;36.70;24.58;;;15.30;99.90;;;;;;5088526;28;20032;-44
2022/05/11 03:56:44;;;;;;;30.10;23.13;;;15.30;99.90;;;;;;5079151;28;20076;-44
2022/05/11 03:59:10;;;;;;;31.90;25.40;;;15.30;99.90;;;;;;5088583;28;20024;-44
2022/05/11 04:01:36;;;;;;;36.55;24.45;;;15.30;99.90;;;;;;5074844;28;20120;-43
2022/05/11 04:04:02;;;;;;;39.22;25.90;;;15.30;99.90;;;;;;5067658;28;20132;-44
2022/05/11 04:06:27;;;;;;;37.00;25.50;;;15.40;99.90;;;;;;5072126;28;20029;-44
2022/05/11 04:08:52;;;;;;;29.75;23.92;;;15.40;99.90;;;;;;5071005;28;20020;-44
2022/05/11 04:11:19;;;;;;;31.92;25.25;;;15.40;99.90;;;;;;5069417;28;20033;-44
2022/05/11 04:13:45;;;;;;;37.35;23.92;;;15.40;99.90;;;;;;5083404;28;20021;-44
2022/05/11 04:16:11;;;;;;;27.95;21.98;;;15.40;99.90;;;;;;5091075;28;20024;-43
2022/05/11 04:18:36;;;;;;;32.35;23.63;;;15.40;99.90;;;;;;5075930;28;20116;-43
2022/05/11 04:21:03;;;;;;;37.33;25.13;;;15.40;99.90;;;;;;5083626;28;20383;-44
2022/05/11 04:23:29;;;;;;;30.98;22.85;;;15.40;99.90;;;;;;5091191;28;20103;-44
2022/05/11 04:25:55;;;;;;;33.35;24.60;;;15.40;99.90;;;;;;5091853;28;20462;-46
2022/05/11 04:28:21;;;;;;;31.98;23.25;;;15.40;99.90;;;;;;5091814;28;20553;-43
2022/05/11 04:30:47;;;;;;;32.17;24.42;;;15.40;99.90;;;;;;5071615;28;20035;-44
2022/05/11 04:33:12;;;;;;;31.75;22.48;;;15.40;99.90;;;;;;5063470;28;20051;-44
2022/05/11 04:35:38;;;;;;;31.83;23.83;;;15.40;99.90;;;;;;5065901;28;20115;-44
2022/05/11 04:38:06;;;;;;;30.27;23.20;;;15.40;99.90;;;;;;5069592;28;20024;-44
2022/05/11 04:40:32;;;;;;;31.13;21.63;;;15.50;99.90;;;;;;5069959;28;20402;-47
2022/05/11 04:42:58;;;;;;;30.85;23.23;;;15.50;99.90;;;;;;5075529;28;20267;-44
2022/05/11 04:45:23;;;;;;;32.05;22.98;;;15.50;99.90;;;;;;5088296;28;20035;-46
2022/05/11 04:47:49;;;;;;;28.52;23.48;;;15.50;99.90;;;;;;5077665;28;20027;-45
2022/05/11 04:50:17;;;;;;;35.10;24.63;;;15.60;99.90;;;;;;5082014;28;20027;-44
2022/05/11 04:52:43;;;;;;;32.85;23.70;;;15.60;99.90;;;;;;5090571;28;20027;-44
2022/05/11 04:55:09;;;;;;;33.60;22.50;;;15.60;99.90;;;;;;5077604;28;20055;-44
2022/05/11 04:57:36;;;;;;;32.08;24.60;;;15.70;99.90;;;;;;5092965;28;20024;-44
2022/05/11 05:00:12;;;;;;;29.92;23.08;;;15.70;99.90;;;;;;5060202;28;20047;-44
2022/05/11 05:02:38;;;;;;;25.33;21.35;;;15.80;99.90;;;;;;5070911;28;20112;-36
2022/05/11 05:05:05;;;;;;;32.15;21.30;;;16.00;99.90;;;;;;5077871;28;20104;-36
2022/05/11 05:07:34;;;;;;;32.50;21.00;;;16.10;99.90;;;;;;5077002;28;20023;-36
2022/05/11 05:10:03;;;;;;;30.23;21.23;;;16.10;99.90;;;;;;5078201;28;20035;-36
2022/05/11 05:12:29;;;;;;;29.15;21.00;;;16.20;99.90;;;;;;5069573;28;20028;-36
2022/05/11 05:14:54;;;;;;;25.55;20.98;;;16.20;99.90;;;;;;5081810;28;20027;-37
2022/05/11 05:17:20;;;;;;;29.70;21.67;;;16.20;99.90;;;;;;5070197;28;20161;-37
2022/05/11 05:19:46;;;;;;;28.30;20.52;;;16.20;99.90;;;;;;5068835;28;20075;-37
2022/05/11 05:22:12;;;;;;;24.50;20.23;;;16.20;99.90;;;;;;5063562;28;20606;-37
2022/05/11 05:24:38;;;;;;;24.25;19.95;;;16.30;99.90;;;;;;5063533;28;20060;-37
2022/05/11 05:27:04;;;;;;;29.88;22.17;;;16.40;99.90;;;;;;5061381;28;20040;-37
2022/05/11 05:32:15;;;;;;;26.92;20.05;;;16.50;99.90;;;;;;5062341;28;20116;-37
2022/05/11 05:34:43;;;;;;;24.17;20.25;;;16.50;99.90;;;;;;5061819;28;20056;-37
2022/05/11 05:37:09;;;;;;;22.40;19.20;;;16.50;99.90;;;;;;5061122;28;20021;-37
2022/05/11 05:39:35;;;;;;;29.10;20.50;;;16.50;99.90;;;;;;5063276;28;20074;-37
2022/05/11 05:42:00;;;;;;;30.10;19.98;;;16.50;99.90;;;;;;5062197;28;20483;-36
2022/05/11 05:44:30;;;;;;;25.48;19.38;;;16.50;99.90;;;;;;5061761;28;20036;-37
2022/05/11 05:47:01;;;;;;;25.65;18.77;;;16.60;99.90;;;;;;5071965;28;20020;-37
2022/05/11 05:49:28;;;;;;;24.88;18.58;;;16.70;99.90;;;;;;5059423;28;20039;-37
2022/05/11 05:51:54;;;;;;;29.92;18.60;;;16.70;99.90;;;;;;5068248;28;20021;-36
2022/05/11 05:54:19;;;;;;;28.08;18.63;;;16.90;99.90;;;;;;5063577;28;20020;-37
2022/05/11 05:56:45;;;;;;;28.92;20.02;;;16.90;99.90;;;;;;5068256;28;20032;-37
2022/05/11 05:59:11;;;;;;;27.27;19.83;;;17.00;99.90;;;;;;5065061;28;20029;-36
2022/05/11 06:01:38;;;;;;;28.30;18.98;;;17.00;99.90;;;;;;5066309;28;20056;-37
2022/05/11 06:04:05;;;;;;;22.98;17.75;;;17.10;99.90;;;;;;5050049;28;20021;-37
2022/05/11 06:06:30;;;;;;;23.55;17.98;;;17.20;99.90;;;;;;5051152;28;20017;-37
2022/05/11 06:08:55;;;;;;;28.75;18.75;;;17.30;99.90;;;;;;5051226;28;20147;-36
2022/05/11 06:11:21;;;;;;;22.35;17.70;;;17.40;99.90;;;;;;5054695;28;20124;-37
2022/05/11 06:13:46;;;;;;;24.63;17.95;;;17.40;99.90;;;;;;5074043;28;20116;-37
2022/05/11 06:16:15;;;;;;;23.75;17.75;;;17.50;99.90;;;;;;5074057;28;20371;-36
2022/05/11 06:18:42;;;;;;;22.55;17.95;;;17.60;99.90;;;;;;5069640;28;20036;-36
2022/05/11 06:21:09;;;;;;;24.40;17.85;;;17.60;99.90;;;;;;5070273;28;20029;-37
2022/05/11 06:23:35;;;;;;;25.98;18.38;;;17.70;99.90;;;;;;5052061;28;20378;-37
2022/05/11 06:26:01;;;;;;;24.42;17.48;;;17.60;99.90;;;;;;5050113;28;20051;-37
2022/05/11 06:28:27;;;;;;;22.58;18.17;;;17.60;99.90;;;;;;5049906;28;20021;-37
2022/05/11 06:30:52;;;;;;;23.33;17.33;;;17.70;99.90;;;;;;5048933;28;20029;-37
2022/05/11 06:33:17;;;;;;;22.95;18.40;;;17.70;99.90;;;;;;5047964;28;20037;-37
2022/05/11 06:35:45;;;;;;;20.88;15.65;;;17.80;99.90;;;;;;5069796;28;20035;-38
2022/05/11 06:38:10;;;;;;;23.45;17.02;;;17.90;99.90;;;;;;5070759;28;20036;-37
2022/05/11 06:40:37;;;;;;;28.95;17.05;;;18.00;99.90;;;;;;5049274;28;20059;-37
2022/05/11 06:43:03;;;;;;;23.58;17.58;;;18.20;99.90;;;;;;5049779;28;20028;-37
2022/05/11 06:45:28;;;;;;;21.02;16.67;;;18.20;99.90;;;;;;5050269;28;20120;-36
2022/05/11 06:47:54;;;;;;;17.65;15.25;;;18.30;99.90;;;;;;5050590;28;20025;-36
2022/05/11 06:50:21;;;;;;;21.40;15.63;;;18.50;99.90;;;;;;5052469;28;20050;-37
2022/05/11 06:52:47;;;;;;;16.77;13.75;;;18.70;99.90;;;;;;5076164;28;20101;-37
2022/05/11 07:00:41;;;;;;;19.13;13.50;;;19.10;99.90;;;;;;5068743;28;20091;-36
2022/05/11 07:03:07;;;;;;;22.58;15.77;;;19.20;99.90;;;;;;5073771;28;20127;-36
2022/05/11 07:05:34;;;;;;;17.10;13.88;;;19.20;99.90;;;;;;5075394;28;20029;-37
2022/05/11 07:08:00;;;;;;;19.88;14.70;;;19.20;99.90;;;;;;5083241;28;20099;-36
2022/05/11 07:10:26;;;;;;;17.95;13.45;;;19.20;99.90;;;;;;5079623;28;20134;-36
2022/05/11 07:12:51;;;;;;;15.27;12.85;;;19.30;99.90;;;;;;5064582;28;20017;-37
2022/05/11 07:15:21;;;;;;;17.90;13.90;;;19.40;99.90;;;;;;5075222;28;20024;-37
2022/05/11 07:17:53;;;;;;;16.13;13.27;;;19.50;99.90;;;;;;5089369;28;20024;-37
2022/05/11 07:20:28;;;;;;;14.57;12.50;;;19.60;99.90;;;;;;5088822;28;20043;-37
2022/05/11 07:22:54;;;;;;;17.33;13.65;;;19.70;99.90;;;;;;5072805;28;20644;-45
2022/05/11 07:25:21;;;;;;;17.77;12.80;;;19.90;99.90;;;;;;5075215;28;20036;-45
2022/05/11 07:27:49;;;;;;;15.48;13.75;;;20.00;99.90;;;;;;5067257;28;20027;-45
2022/05/11 07:30:21;;;;;;;23.70;17.40;;;20.30;99.90;;;;;;5072432;28;20078;-46
2022/05/11 07:32:46;;;;;;;19.52;15.93;;;20.30;99.90;;;;;;5080410;28;20035;-44
2022/05/11 07:35:12;;;;;;;17.35;14.10;;;20.20;99.90;;;;;;5070744;28;20024;-44
2022/05/11 07:37:38;;;;;;;18.05;13.75;;;20.40;99.90;;;;;;5081040;28;20032;-45
2022/05/11 07:40:05;;;;;;;18.77;14.57;;;20.60;99.90;;;;;;5088739;28;20035;-45
2022/05/11 07:42:31;;;;;;;19.83;14.30;;;20.70;99.90;;;;;;5084308;28;20043;-44
2022/05/11 07:44:57;;;;;;;18.58;15.13;;;20.80;99.90;;;;;;5048612;28;20033;-45
2022/05/11 07:47:22;;;;;;;19.45;16.02;;;21.00;99.90;;;;;;5047212;28;20021;-46
2022/05/11 07:49:48;;;;;;;22.02;16.50;;;21.20;99.90;;;;;;5048246;28;20103;-46
2022/05/11 07:52:14;;;;;;;20.73;12.65;;;21.10;99.90;;;;;;5068763;28;20516;-47
2022/05/11 07:54:40;;;;;;;19.35;14.48;;;21.10;99.90;;;;;;5077726;28;20044;-48
2022/05/11 07:59:52;;;;;;;16.52;13.35;;;21.50;99.90;;;;;;5062761;28;20043;-47
2022/05/11 08:02:17;;;;;;;17.58;14.57;;;21.50;99.90;;;;;;5061914;28;20021;-45
2022/05/11 08:04:43;;;;;;;12.48;10.82;;;21.50;99.90;;;;;;5059045;28;20801;-44
2022/05/11 08:07:10;;;;;;;15.48;11.75;;;21.70;99.90;;;;;;5065699;28;20024;-45
2022/05/11 08:09:35;;;;;;;17.63;14.10;;;22.10;99.90;;;;;;5059531;28;20494;-44
2022/05/11 08:12:01;;;;;;;14.27;11.63;;;21.90;99.90;;;;;;5056260;28;20227;-44
2022/05/11 08:14:27;;;;;;;16.52;12.00;;;22.30;99.90;;;;;;5057104;28;20543;-45
2022/05/11 08:16:52;;;;;;;19.13;10.70;;;22.80;99.20;;;;;;5056075;28;20413;-45
2022/05/11 08:19:19;;;;;;;15.38;11.82;;;22.90;97.80;;;;;;5063065;28;20035;-46
2022/05/11 08:21:46;;;;;;;15.73;10.95;;;22.50;97.40;;;;;;5057344;28;20032;-45
2022/05/11 08:24:12;;;;;;;16.27;10.95;;;22.10;96.80;;;;;;5060309;28;20033;-45
2022/05/11 08:26:40;;;;;;;15.65;9.43;;;22.50;98.60;;;;;;5061566;28;20377;-45
2022/05/11 08:29:06;;;;;;;12.50;8.40;;;23.60;96.50;;;;;;5061599;28;20020;-45
2022/05/11 08:34:15;;;;;;;8.75;6.95;;;25.50;90.60;;;;;;5064366;28;20086;-46
2022/05/11 08:36:41;;;;;;;11.20;7.07;;;26.00;89.20;;;;;;5062662;28;20481;-45
2022/05/11 08:39:07;;;;;;;11.65;7.05;;;27.60;81.30;;;;;;5062693;28;20047;-44
2022/05/11 08:41:45;;;;;;;9.45;6.43;;;28.00;75.10;;;;;;5063209;28;20032;-45
2022/05/11 08:44:27;;;;;;;9.90;6.22;;;28.50;73.10;;;;;;5059269;28;20082;-45
2022/05/11 08:47:03;;;;;;;11.15;6.25;;;28.90;72.10;;;;;;5062061;28;20111;-46
2022/05/11 08:49:52;;;;;;;6.40;5.57;;;29.60;67.90;;;;;;5062704;28;20380;-46
2022/05/11 08:52:20;;;;;;;8.38;6.82;;;29.60;68.10;;;;;;5060123;28;20021;-44
2022/05/11 08:54:49;;;;;;;8.25;6.93;;;30.00;65.40;;;;;;5062064;28;20029;-45
2022/05/11 08:57:23;;;;;;;16.45;7.85;;;28.90;65.90;;;;;;5065424;28;20029;-45
2022/05/11 08:59:51;;;;;;;7.93;7.13;;;27.90;66.70;;;;;;5059730;28;20099;-45
2022/05/11 09:02:30;;;;;;;12.85;8.00;;;27.10;69.70;;;;;;5063231;28;20081;-45
2022/05/11 09:04:58;;;;;;;9.73;6.93;;;26.90;70.00;;;;;;5065804;28;20023;-51
2022/05/11 09:07:24;;;;;;;9.23;7.10;;;27.30;71.90;;;;;;5064129;28;20255;-45
2022/05/11 09:09:53;;;;;;;8.27;6.35;;;28.60;68.40;;;;;;5060039;28;20074;-46
2022/05/11 09:12:20;;;;;;;9.68;6.55;;;29.60;67.50;;;;;;5058779;28;20143;-46
2022/05/11 09:14:50;;;;;;;9.68;6.30;;;31.50;63.50;;;;;;5066906;28;20040;-44
2022/05/11 09:17:26;;;;;;;7.03;6.32;;;30.00;62.60;;;;;;5060007;28;20028;-45
2022/05/11 09:20:08;;;;;;;9.93;6.20;;;29.80;62.50;;;;;;5062658;28;20103;-45
2022/05/11 09:22:54;;;;;;;10.25;6.22;;;30.50;64.00;;;;;;5062322;28;20025;-45
2022/05/11 09:25:20;;;;;;;5.90;4.97;;;31.50;61.50;;;;;;5060992;28;20028;-46
2022/05/11 09:27:46;;;;;;;4.82;4.28;;;32.40;61.60;;;;;;5061851;28;20438;-46
2022/05/11 09:30:27;;;;;;;8.45;4.60;;;32.50;55.10;;;;;;5064984;28;20025;-45
2022/05/11 09:33:17;;;;;;;8.13;4.20;;;33.00;53.90;;;;;;5061563;28;20580;-45
2022/05/11 09:35:44;;;;;;;6.43;4.30;;;33.60;52.10;;;;;;5061782;28;20383;-48
2022/05/11 09:38:40;;;;;;;4.80;4.28;;;34.10;51.70;;;;;;5060655;28;20020;-45
2022/05/11 09:41:12;;;;;;;5.10;4.60;;;33.90;51.50;;;;;;5063521;28;20075;-48
2022/05/11 09:43:50;;;;;;;6.90;4.22;;;33.90;50.60;;;;;;5059901;28;20112;-46
2022/05/11 09:46:27;;;;;;;6.07;4.47;;;33.70;50.20;;;;;;5062186;28;20013;-46
2022/05/11 09:49:13;;;;;;;7.57;3.90;;;32.40;50.50;;;;;;5063548;28;20062;-48
2022/05/11 09:51:38;;;;;;;7.55;4.40;;;33.00;50.80;;;;;;5059604;28;20021;-47
2022/05/11 09:54:29;;;;;;;6.75;4.32;;;32.90;51.50;;;;;;5060983;28;20417;-46
2022/05/11 09:56:59;;;;;;;6.00;4.35;;;33.50;51.60;;;;;;5062993;28;20025;-47
2022/05/11 09:59:31;;;;;;;7.40;4.30;;;34.00;51.10;;;;;;5057570;28;20351;-47
2022/05/11 10:02:32;;;;;;;4.75;4.20;;;33.60;51.50;;;;;;5061353;28;20028;-45
2022/05/11 10:05:30;;;;;;;6.80;3.75;;;33.90;49.70;;;;;;5060639;28;20470;-47
2022/05/11 10:07:59;;;;;;;8.48;3.47;;;33.30;49.40;;;;;;5060063;28;20017;-46
2022/05/11 10:10:32;;;;;;;4.40;3.58;;;33.80;49.10;;;;;;5063689;28;20486;-45
2022/05/11 10:13:16;;;;;;;6.85;4.25;;;34.10;49.10;;;;;;5060557;28;20056;-47
2022/05/11 10:24:09;;;;;;;4.53;3.70;;;34.00;48.60;;;;;;5063974;28;20055;-46
2022/05/11 10:26:48;;;;;;;5.55;4.07;;;34.80;48.00;;;;;;5066556;28;20050;-44
2022/05/11 10:29:22;;;;;;;4.70;4.28;;;33.30;47.10;;;;;;5060105;28;20035;-44
2022/05/11 10:31:58;;;;;;;3.70;3.40;;;33.20;48.20;;;;;;5059223;28;20494;-48
2022/05/11 10:34:51;;;;;;;7.13;3.92;;;33.60;49.10;;;;;;5061191;28;20355;-45
2022/05/11 10:37:31;;;;;;;5.72;3.70;;;33.10;47.30;;;;;;5059546;28;20031;-45
2022/05/11 10:39:56;;;;;;;8.02;4.10;;;31.90;50.00;;;;;;5087635;28;20493;-45
2022/05/11 10:42:39;;;;;;;7.55;4.07;;;31.70;50.70;;;;;;5070444;28;20036;-45
2022/05/11 10:45:20;;;;;;;5.30;4.13;;;32.80;49.80;;;;;;5064297;28;20047;-45
2022/05/11 10:48:04;;;;;;;6.43;3.75;;;33.70;48.30;;;;;;5062834;28;20032;-45
2022/05/11 10:50:40;;;;;;;5.20;4.18;;;33.00;48.90;;;;;;5063429;28;20027;-48
2022/05/11 10:53:43;;;;;;;6.60;4.32;;;32.60;50.50;;;;;;5055656;28;20021;-48
2022/05/11 10:56:27;;;;;;;5.35;3.78;;;32.70;49.40;;;;;;5064298;28;20078;-45
2022/05/11 10:59:20;;;;;;;5.75;3.40;;;31.60;49.10;;;;;;5059536;28;20029;-45
2022/05/11 11:02:32;;;;;;;7.07;3.63;;;32.60;47.90;;;;;;5054397;28;20132;-47
2022/05/11 11:05:31;;;;;;;5.50;3.40;;;31.70;47.60;;;;;;5066685;28;20406;-45
2022/05/11 11:08:40;;;;;;;3.72;3.25;;;31.90;49.10;;;;;;5057158;28;20021;-46
2022/05/11 11:11:16;;;;;;;5.45;4.25;;;31.70;49.10;;;;;;5062241;28;20028;-45
2022/05/11 11:14:00;;;;;;;6.70;4.53;;;31.60;47.90;;;;;;5063625;28;20032;-45
2022/05/11 11:16:31;;;;;;;5.88;3.33;;;31.10;48.80;;;;;;5067033;28;20032;-45
2022/05/11 11:18:57;;;;;;;6.13;3.63;;;31.00;48.40;;;;;;5060617;28;20017;-45
2022/05/11 11:21:23;;;;;;;7.38;3.22;;;31.50;47.90;;;;;;5074690;28;20047;-45
2022/05/11 11:24:10;;;;;;;8.00;3.42;;;32.60;47.70;;;;;;5056201;28;20048;-45
2022/05/11 11:26:46;;;;;;;6.00;3.35;;;31.70;46.30;;;;;;5065487;28;20023;-45
2022/05/11 11:29:11;;;;;;;9.73;3.17;;;32.10;48.60;;;;;;5056615;28;20541;-44
2022/05/11 11:31:56;;;;;;;4.65;3.30;;;32.70;48.50;;;;;;5060989;28;20020;-44
2022/05/11 11:34:25;;;;;;;7.50;3.25;;;33.10;46.30;;;;;;5061382;28;20555;-46
2022/05/11 11:36:51;;;;;;;10.75;3.53;;;33.10;46.70;;;;;;5065924;28;20040;-46
2022/05/11 11:39:57;;;;;;;6.03;3.08;;;33.90;47.00;;;;;;5061257;28;20028;-44
2022/05/11 11:42:38;;;;;;;10.50;3.65;;;33.90;46.10;;;;;;5066813;28;20241;-45
2022/05/11 11:45:31;;;;;;;9.02;3.75;;;33.60;45.00;;;;;;5058733;28;20449;-45
2022/05/11 11:48:25;;;;;;;5.75;3.00;;;33.10;46.00;;;;;;5064752;28;20024;-47
2022/05/11 11:51:00;;;;;;;8.50;3.45;;;33.80;45.20;;;;;;5055730;28;20052;-44
2022/05/11 11:53:35;;;;;;;6.70;3.13;;;32.70;46.10;;;;;;5073418;28;20249;-47
2022/05/11 11:56:23;;;;;;;5.00;2.85;;;32.90;47.10;;;;;;5084160;28;20143;-45
2022/05/11 11:59:05;;;;;;;10.80;3.05;;;31.90;46.90;;;;;;5074636;28;20596;-43
2022/05/11 12:01:34;;;;;;;9.90;3.17;;;31.80;45.90;;;;;;5070081;28;20024;-44
2022/05/11 12:04:04;;;;;;;7.55;3.30;;;31.70;46.70;;;;;;5093341;28;20578;-44
2022/05/11 12:15:02;;;;;;;6.85;3.30;;;31.40;47.60;;;;;;5075333;28;20039;-44
2022/05/11 12:17:37;;;;;;;4.05;3.22;;;31.50;48.60;;;;;;5072149;28;20360;-44
2022/05/11 12:20:05;;;;;;;3.67;3.38;;;31.30;49.10;;;;;;5086081;28;20490;-46
2022/05/11 12:22:32;;;;;;;7.35;3.20;;;31.40;48.50;;;;;;5073053;28;20028;-44
2022/05/11 12:25:11;;;;;;;9.90;3.63;;;31.00;50.00;;;;;;5084651;28;20024;-44
2022/05/11 12:27:37;;;;;;;5.53;3.00;;;31.00;48.70;;;;;;5062149;28;20032;-44
2022/05/11 12:30:40;;;;;;;6.55;3.10;;;30.70;48.10;;;;;;5083585;28;20028;-45
2022/05/11 12:33:07;;;;;;;7.45;3.60;;;30.80;48.10;;;;;;5074402;28;20033;-44
2022/05/11 12:35:38;;;;;;;14.25;3.50;;;31.00;49.30;;;;;;5080922;28;20024;-47
2022/05/11 12:38:09;;;;;;;6.40;3.40;;;31.00;48.90;;;;;;5068408;28;20024;-44
2022/05/11 12:40:52;;;;;;;7.72;3.40;;;30.80;48.70;;;;;;5073201;28;20075;-47
2022/05/11 12:43:26;;;;;;;4.85;3.22;;;30.40;48.10;;;;;;5067894;28;20203;-45
2022/05/11 12:45:55;;;;;;;8.65;3.30;;;30.70;49.20;;;;;;5086903;28;20024;-45
2022/05/11 12:48:27;;;;;;;6.22;3.50;;;30.30;48.70;;;;;;5070786;28;20088;-45
2022/05/11 12:51:06;;;;;;;12.15;8.52;;;30.30;48.70;;;;;;5073343;28;20077;-44
2022/05/11 12:53:37;;;;;;;6.60;3.28;;;30.60;50.90;;;;;;5081510;28;20016;-47
2022/05/11 12:56:13;;;;;;;7.85;3.40;;;30.50;49.40;;;;;;5072465;28;20028;-44
2022/05/11 12:58:58;;;;;;;10.07;4.03;;;30.60;50.30;;;;;;5073327;28;20028;-44
2022/05/11 13:01:29;;;;;;;9.95;3.55;;;30.80;50.10;;;;;;5084192;28;20107;-45
2022/05/11 13:03:58;;;;;;;3.65;3.20;;;30.90;47.90;;;;;;5089911;28;20048;-44
2022/05/11 13:06:27;;;;;;;7.13;3.30;;;30.70;49.10;;;;;;5083583;28;20102;-45
2022/05/11 13:08:56;;;;;;;10.05;3.60;;;30.80;48.70;;;;;;5080202;28;20415;-45
2022/05/11 13:11:26;;;;;;;7.53;3.20;;;30.70;49.20;;;;;;5079073;28;20033;-44
2022/05/11 13:13:57;;;;;;;6.88;3.47;;;30.90;49.70;;;;;;5075418;28;20021;-44
2022/05/11 13:16:32;;;;;;;5.07;3.72;;;30.80;48.80;;;;;;5078108;28;20055;-45
2022/05/11 13:19:19;;;;;;;6.35;3.53;;;30.40;48.50;;;;;;5072535;28;20763;-46
2022/05/11 13:21:46;;;;;;;6.40;3.25;;;30.50;49.00;;;;;;5072946;28;20027;-46
2022/05/11 13:24:11;;;;;;;5.90;3.15;;;30.50;48.70;;;;;;5067138;28;20024;-45
2022/05/11 13:26:43;;;;;;;7.75;3.25;;;30.60;50.10;;;;;;5083715;28;20064;-45
2022/05/11 13:29:11;;;;;;;5.63;4.18;;;30.40;48.60;;;;;;5078364;28;20373;-47